sensor_id;sensor_type;location;lat;lon;timestamp;P1;durP1;ratioP1;P2;durP2;ratioP2
62927;SDS011;51070;52.236;-0.892;2023-05-20T00:00:29;9.20;;;4.60;;
62927;SDS011;51070;52.236;-0.892;2023-05-20T00:02:55;12.20;;;4.80;;
62927;SDS011;51070;52.236;-0.892;2023-05-20T00:05:21;13.30;;;5.00;;
62927;SDS011;51070;52.236;-0.892;2023-05-20T00:07:47;8.00;;;5.40;;
62927;SDS011;51070;52.236;-0.892;2023-05-20T00:10:13;9.00;;;4.60;;
62927;SDS011;51070;52.236;-0.892;2023-05-20T00:12:39;9.00;;;4.50;;
62927;SDS011;51070;52.236;-0.892;2023-05-20T00:15:05;10.20;;;4.20;;
62927;SDS011;51070;52.236;-0.892;2023-05-20T00:17:31;10.10;;;4.90;;
62927;SDS011;51070;52.236;-0.892;2023-05-20T00:19:56;11.30;;;5.20;;
62927;SDS011;51070;52.236;-0.892;2023-05-20T00:22:24;11.90;;;5.60;;
62927;SDS011;51070;52.236;-0.892;2023-05-20T00:24:49;11.50;;;5.20;;
62927;SDS011;51070;52.236;-0.892;2023-05-20T00:27:14;13.00;;;5.10;;
62927;SDS011;51070;52.236;-0.892;2023-05-20T00:29:43;12.60;;;5.00;;
62927;SDS011;51070;52.236;-0.892;2023-05-20T00:32:08;12.30;;;5.10;;
62927;SDS011;51070;52.236;-0.892;2023-05-20T00:34:33;11.50;;;5.30;;
62927;SDS011;51070;52.236;-0.892;2023-05-20T00:36:59;12.30;;;4.40;;
62927;SDS011;51070;52.236;-0.892;2023-05-20T00:39:24;10.60;;;4.40;;
62927;SDS011;51070;52.236;-0.892;2023-05-20T00:41:50;8.40;;;4.70;;
62927;SDS011;51070;52.236;-0.892;2023-05-20T00:44:15;8.50;;;5.00;;
62927;SDS011;51070;52.236;-0.892;2023-05-20T00:46:43;5.50;;;3.70;;
62927;SDS011;51070;52.236;-0.892;2023-05-20T00:49:09;11.90;;;5.50;;
62927;SDS011;51070;52.236;-0.892;2023-05-20T00:51:35;10.70;;;4.60;;
62927;SDS011;51070;52.236;-0.892;2023-05-20T00:54:00;10.20;;;5.60;;
62927;SDS011;51070;52.236;-0.892;2023-05-20T00:56:27;8.90;;;5.10;;
62927;SDS011;51070;52.236;-0.892;2023-05-20T00:58:54;14.50;;;5.10;;
62927;SDS011;51070;52.236;-0.892;2023-05-20T01:01:20;10.60;;;5.10;;
62927;SDS011;51070;52.236;-0.892;2023-05-20T01:03:45;13.40;;;5.70;;
62927;SDS011;51070;52.236;-0.892;2023-05-20T01:06:12;9.50;;;5.30;;
62927;SDS011;51070;52.236;-0.892;2023-05-20T01:08:38;8.90;;;5.10;;
62927;SDS011;51070;52.236;-0.892;2023-05-20T01:11:08;13.70;;;6.30;;
62927;SDS011;51070;52.236;-0.892;2023-05-20T01:13:46;11.90;;;5.30;;
62927;SDS011;51070;52.236;-0.892;2023-05-20T01:16:18;12.70;;;5.60;;
62927;SDS011;51070;52.236;-0.892;2023-05-20T01:18:47;7.00;;;4.40;;
62927;SDS011;51070;52.236;-0.892;2023-05-20T01:21:13;8.70;;;5.30;;
62927;SDS011;51070;52.236;-0.892;2023-05-20T01:23:41;8.70;;;4.60;;
62927;SDS011;51070;52.236;-0.892;2023-05-20T01:26:07;11.30;;;6.20;;
62927;SDS011;51070;52.236;-0.892;2023-05-20T01:28:37;7.10;;;4.60;;
62927;SDS011;51070;52.236;-0.892;2023-05-20T01:31:04;11.00;;;5.10;;
62927;SDS011;51070;52.236;-0.892;2023-05-20T01:33:36;12.00;;;5.70;;
62927;SDS011;51070;52.236;-0.892;2023-05-20T01:36:03;9.90;;;5.10;;
62927;SDS011;51070;52.236;-0.892;2023-05-20T01:38:30;8.50;;;5.40;;
62927;SDS011;51070;52.236;-0.892;2023-05-20T01:40:56;11.40;;;4.10;;
62927;SDS011;51070;52.236;-0.892;2023-05-20T01:43:24;11.80;;;5.80;;
62927;SDS011;51070;52.236;-0.892;2023-05-20T01:45:50;9.30;;;4.60;;
62927;SDS011;51070;52.236;-0.892;2023-05-20T01:48:16;8.50;;;4.80;;
62927;SDS011;51070;52.236;-0.892;2023-05-20T01:50:42;12.80;;;4.40;;
62927;SDS011;51070;52.236;-0.892;2023-05-20T01:53:07;9.30;;;4.10;;
62927;SDS011;51070;52.236;-0.892;2023-05-20T01:55:34;9.80;;;4.70;;
62927;SDS011;51070;52.236;-0.892;2023-05-20T01:58:00;9.40;;;4.70;;
62927;SDS011;51070;52.236;-0.892;2023-05-20T02:00:26;13.40;;;5.10;;
62927;SDS011;51070;52.236;-0.892;2023-05-20T02:02:52;12.10;;;5.40;;
62927;SDS011;51070;52.236;-0.892;2023-05-20T02:05:17;11.70;;;5.10;;
62927;SDS011;51070;52.236;-0.892;2023-05-20T02:07:43;11.50;;;5.70;;
62927;SDS011;51070;52.236;-0.892;2023-05-20T02:10:09;9.50;;;5.00;;
62927;SDS011;51070;52.236;-0.892;2023-05-20T02:12:34;8.00;;;4.60;;
62927;SDS011;51070;52.236;-0.892;2023-05-20T02:15:00;9.80;;;4.70;;
62927;SDS011;51070;52.236;-0.892;2023-05-20T02:17:26;9.90;;;4.90;;
62927;SDS011;51070;52.236;-0.892;2023-05-20T02:19:51;9.90;;;5.00;;
62927;SDS011;51070;52.236;-0.892;2023-05-20T02:22:17;11.40;;;5.00;;
62927;SDS011;51070;52.236;-0.892;2023-05-20T02:24:42;9.40;;;5.10;;
62927;SDS011;51070;52.236;-0.892;2023-05-20T02:27:08;14.00;;;4.70;;
62927;SDS011;51070;52.236;-0.892;2023-05-20T02:29:34;10.00;;;4.20;;
62927;SDS011;51070;52.236;-0.892;2023-05-20T02:32:01;9.00;;;4.40;;
62927;SDS011;51070;52.236;-0.892;2023-05-20T02:34:26;10.00;;;5.00;;
62927;SDS011;51070;52.236;-0.892;2023-05-20T02:36:54;10.80;;;4.70;;
62927;SDS011;51070;52.236;-0.892;2023-05-20T02:39:20;11.00;;;5.20;;
62927;SDS011;51070;52.236;-0.892;2023-05-20T02:41:45;9.10;;;4.30;;
62927;SDS011;51070;52.236;-0.892;2023-05-20T02:44:11;10.10;;;4.80;;
62927;SDS011;51070;52.236;-0.892;2023-05-20T02:46:36;10.30;;;5.30;;
62927;SDS011;51070;52.236;-0.892;2023-05-20T02:49:01;8.70;;;4.90;;
62927;SDS011;51070;52.236;-0.892;2023-05-20T02:51:27;11.10;;;6.10;;
62927;SDS011;51070;52.236;-0.892;2023-05-20T02:53:52;9.80;;;5.10;;
62927;SDS011;51070;52.236;-0.892;2023-05-20T02:56:18;9.50;;;5.70;;
62927;SDS011;51070;52.236;-0.892;2023-05-20T02:58:46;13.60;;;5.80;;
62927;SDS011;51070;52.236;-0.892;2023-05-20T03:01:12;13.80;;;5.90;;
62927;SDS011;51070;52.236;-0.892;2023-05-20T03:03:38;10.20;;;5.30;;
62927;SDS011;51070;52.236;-0.892;2023-05-20T03:06:05;14.50;;;5.70;;
62927;SDS011;51070;52.236;-0.892;2023-05-20T03:10:58;14.10;;;5.80;;
62927;SDS011;51070;52.236;-0.892;2023-05-20T03:13:25;8.60;;;5.50;;
62927;SDS011;51070;52.236;-0.892;2023-05-20T03:15:50;16.70;;;7.00;;
62927;SDS011;51070;52.236;-0.892;2023-05-20T03:18:16;8.50;;;5.70;;
62927;SDS011;51070;52.236;-0.892;2023-05-20T03:20:42;12.60;;;6.30;;
62927;SDS011;51070;52.236;-0.892;2023-05-20T03:23:07;13.90;;;5.70;;
62927;SDS011;51070;52.236;-0.892;2023-05-20T03:25:33;9.50;;;5.70;;
62927;SDS011;51070;52.236;-0.892;2023-05-20T03:27:58;10.20;;;5.40;;
62927;SDS011;51070;52.236;-0.892;2023-05-20T03:30:24;13.00;;;5.80;;
62927;SDS011;51070;52.236;-0.892;2023-05-20T03:32:50;7.50;;;4.90;;
62927;SDS011;51070;52.236;-0.892;2023-05-20T03:35:16;10.80;;;5.40;;
62927;SDS011;51070;52.236;-0.892;2023-05-20T03:37:42;10.00;;;6.60;;
62927;SDS011;51070;52.236;-0.892;2023-05-20T03:40:08;11.10;;;5.90;;
62927;SDS011;51070;52.236;-0.892;2023-05-20T03:42:37;13.40;;;6.00;;
62927;SDS011;51070;52.236;-0.892;2023-05-20T03:45:03;8.80;;;5.40;;
62927;SDS011;51070;52.236;-0.892;2023-05-20T03:47:29;9.50;;;5.70;;
62927;SDS011;51070;52.236;-0.892;2023-05-20T03:49:54;10.00;;;5.80;;
62927;SDS011;51070;52.236;-0.892;2023-05-20T03:52:19;10.30;;;5.90;;
62927;SDS011;51070;52.236;-0.892;2023-05-20T03:54:45;9.60;;;5.70;;
62927;SDS011;51070;52.236;-0.892;2023-05-20T03:57:11;12.00;;;6.20;;
62927;SDS011;51070;52.236;-0.892;2023-05-20T03:59:36;11.40;;;6.10;;
62927;SDS011;51070;52.236;-0.892;2023-05-20T04:02:03;9.00;;;5.80;;
62927;SDS011;51070;52.236;-0.892;2023-05-20T04:04:29;9.20;;;5.90;;
62927;SDS011;51070;52.236;-0.892;2023-05-20T04:06:56;13.70;;;6.10;;
62927;SDS011;51070;52.236;-0.892;2023-05-20T04:09:25;9.20;;;5.70;;
62927;SDS011;51070;52.236;-0.892;2023-05-20T04:11:51;13.10;;;7.10;;
62927;SDS011;51070;52.236;-0.892;2023-05-20T04:14:17;12.40;;;5.90;;
62927;SDS011;51070;52.236;-0.892;2023-05-20T04:16:43;13.30;;;6.20;;
62927;SDS011;51070;52.236;-0.892;2023-05-20T04:19:10;9.50;;;6.20;;
62927;SDS011;51070;52.236;-0.892;2023-05-20T04:21:36;10.40;;;4.80;;
62927;SDS011;51070;52.236;-0.892;2023-05-20T04:24:03;12.30;;;6.30;;
62927;SDS011;51070;52.236;-0.892;2023-05-20T04:26:28;6.80;;;4.50;;
62927;SDS011;51070;52.236;-0.892;2023-05-20T04:28:54;11.10;;;6.50;;
62927;SDS011;51070;52.236;-0.892;2023-05-20T04:31:23;10.90;;;6.00;;
62927;SDS011;51070;52.236;-0.892;2023-05-20T04:33:51;10.00;;;5.80;;
62927;SDS011;51070;52.236;-0.892;2023-05-20T04:36:17;11.40;;;5.40;;
62927;SDS011;51070;52.236;-0.892;2023-05-20T04:38:42;12.40;;;6.10;;
62927;SDS011;51070;52.236;-0.892;2023-05-20T04:41:08;15.00;;;5.90;;
62927;SDS011;51070;52.236;-0.892;2023-05-20T04:43:35;11.70;;;5.90;;
62927;SDS011;51070;52.236;-0.892;2023-05-20T04:46:03;9.30;;;5.10;;
62927;SDS011;51070;52.236;-0.892;2023-05-20T04:48:31;12.90;;;6.30;;
62927;SDS011;51070;52.236;-0.892;2023-05-20T04:50:57;13.70;;;5.70;;
62927;SDS011;51070;52.236;-0.892;2023-05-20T04:53:22;12.20;;;5.60;;
62927;SDS011;51070;52.236;-0.892;2023-05-20T04:55:48;16.80;;;6.30;;
62927;SDS011;51070;52.236;-0.892;2023-05-20T04:58:18;13.80;;;5.90;;
62927;SDS011;51070;52.236;-0.892;2023-05-20T05:00:44;11.50;;;5.70;;
62927;SDS011;51070;52.236;-0.892;2023-05-20T05:03:09;13.40;;;6.20;;
62927;SDS011;51070;52.236;-0.892;2023-05-20T05:05:37;12.60;;;6.40;;
62927;SDS011;51070;52.236;-0.892;2023-05-20T05:08:03;14.40;;;6.10;;
62927;SDS011;51070;52.236;-0.892;2023-05-20T05:10:30;14.70;;;5.80;;
62927;SDS011;51070;52.236;-0.892;2023-05-20T05:12:56;11.40;;;5.20;;
62927;SDS011;51070;52.236;-0.892;2023-05-20T05:15:21;10.20;;;5.20;;
62927;SDS011;51070;52.236;-0.892;2023-05-20T05:17:47;8.80;;;6.10;;
62927;SDS011;51070;52.236;-0.892;2023-05-20T05:20:12;12.60;;;6.00;;
62927;SDS011;51070;52.236;-0.892;2023-05-20T05:22:38;10.50;;;5.60;;
62927;SDS011;51070;52.236;-0.892;2023-05-20T05:25:06;10.50;;;5.20;;
62927;SDS011;51070;52.236;-0.892;2023-05-20T05:27:32;8.50;;;4.80;;
62927;SDS011;51070;52.236;-0.892;2023-05-20T05:29:58;11.30;;;6.10;;
62927;SDS011;51070;52.236;-0.892;2023-05-20T05:32:23;13.80;;;5.30;;
62927;SDS011;51070;52.236;-0.892;2023-05-20T05:34:48;17.90;;;5.60;;
62927;SDS011;51070;52.236;-0.892;2023-05-20T05:37:14;12.80;;;5.20;;
62927;SDS011;51070;52.236;-0.892;2023-05-20T05:39:39;9.60;;;5.30;;
62927;SDS011;51070;52.236;-0.892;2023-05-20T05:42:05;7.80;;;4.50;;
62927;SDS011;51070;52.236;-0.892;2023-05-20T05:44:30;9.80;;;5.30;;
62927;SDS011;51070;52.236;-0.892;2023-05-20T05:46:56;9.70;;;5.30;;
62927;SDS011;51070;52.236;-0.892;2023-05-20T05:49:21;8.70;;;4.90;;
62927;SDS011;51070;52.236;-0.892;2023-05-20T05:51:46;11.30;;;5.30;;
62927;SDS011;51070;52.236;-0.892;2023-05-20T05:54:12;10.30;;;4.70;;
62927;SDS011;51070;52.236;-0.892;2023-05-20T05:56:37;7.80;;;4.80;;
62927;SDS011;51070;52.236;-0.892;2023-05-20T05:59:03;7.70;;;5.00;;
62927;SDS011;51070;52.236;-0.892;2023-05-20T06:01:29;7.70;;;4.60;;
62927;SDS011;51070;52.236;-0.892;2023-05-20T06:03:55;8.80;;;4.50;;
62927;SDS011;51070;52.236;-0.892;2023-05-20T06:06:20;7.50;;;4.40;;
62927;SDS011;51070;52.236;-0.892;2023-05-20T06:08:45;12.40;;;5.60;;
62927;SDS011;51070;52.236;-0.892;2023-05-20T06:11:11;10.40;;;4.80;;
62927;SDS011;51070;52.236;-0.892;2023-05-20T06:13:36;6.10;;;4.30;;
62927;SDS011;51070;52.236;-0.892;2023-05-20T06:16:02;7.80;;;4.50;;
62927;SDS011;51070;52.236;-0.892;2023-05-20T06:18:28;7.10;;;4.30;;
62927;SDS011;51070;52.236;-0.892;2023-05-20T06:20:56;11.00;;;4.90;;
62927;SDS011;51070;52.236;-0.892;2023-05-20T06:23:22;8.70;;;4.90;;
62927;SDS011;51070;52.236;-0.892;2023-05-20T06:25:48;10.70;;;4.50;;
62927;SDS011;51070;52.236;-0.892;2023-05-20T06:28:14;9.70;;;4.10;;
62927;SDS011;51070;52.236;-0.892;2023-05-20T06:30:40;10.40;;;4.60;;
62927;SDS011;51070;52.236;-0.892;2023-05-20T06:33:06;7.80;;;3.90;;
62927;SDS011;51070;52.236;-0.892;2023-05-20T06:35:32;9.20;;;4.30;;
62927;SDS011;51070;52.236;-0.892;2023-05-20T06:38:00;7.50;;;4.30;;
62927;SDS011;51070;52.236;-0.892;2023-05-20T06:40:29;5.90;;;4.20;;
62927;SDS011;51070;52.236;-0.892;2023-05-20T06:42:54;10.30;;;4.50;;
62927;SDS011;51070;52.236;-0.892;2023-05-20T06:45:20;7.70;;;4.00;;
62927;SDS011;51070;52.236;-0.892;2023-05-20T06:47:46;7.00;;;4.30;;
62927;SDS011;51070;52.236;-0.892;2023-05-20T06:50:13;6.60;;;4.10;;
62927;SDS011;51070;52.236;-0.892;2023-05-20T06:52:38;9.80;;;4.20;;
62927;SDS011;51070;52.236;-0.892;2023-05-20T06:55:04;6.70;;;3.80;;
62927;SDS011;51070;52.236;-0.892;2023-05-20T06:57:30;9.70;;;4.40;;
62927;SDS011;51070;52.236;-0.892;2023-05-20T06:59:56;6.20;;;4.00;;
62927;SDS011;51070;52.236;-0.892;2023-05-20T07:02:21;7.40;;;4.00;;
62927;SDS011;51070;52.236;-0.892;2023-05-20T07:04:47;7.80;;;4.10;;
62927;SDS011;51070;52.236;-0.892;2023-05-20T07:07:13;10.00;;;4.60;;
62927;SDS011;51070;52.236;-0.892;2023-05-20T07:09:38;9.90;;;4.60;;
62927;SDS011;51070;52.236;-0.892;2023-05-20T07:12:04;9.70;;;4.60;;
62927;SDS011;51070;52.236;-0.892;2023-05-20T07:14:31;5.80;;;3.80;;
62927;SDS011;51070;52.236;-0.892;2023-05-20T07:16:56;8.70;;;3.80;;
62927;SDS011;51070;52.236;-0.892;2023-05-20T07:19:22;8.40;;;3.50;;
62927;SDS011;51070;52.236;-0.892;2023-05-20T07:21:47;8.30;;;4.00;;
62927;SDS011;51070;52.236;-0.892;2023-05-20T07:24:15;7.60;;;3.40;;
62927;SDS011;51070;52.236;-0.892;2023-05-20T07:26:41;6.50;;;3.10;;
62927;SDS011;51070;52.236;-0.892;2023-05-20T07:29:06;6.30;;;3.30;;
62927;SDS011;51070;52.236;-0.892;2023-05-20T07:33:59;7.30;;;3.40;;
62927;SDS011;51070;52.236;-0.892;2023-05-20T07:36:25;6.40;;;3.40;;
62927;SDS011;51070;52.236;-0.892;2023-05-20T07:38:52;6.00;;;3.30;;
62927;SDS011;51070;52.236;-0.892;2023-05-20T07:41:17;6.40;;;3.20;;
62927;SDS011;51070;52.236;-0.892;2023-05-20T07:43:43;5.30;;;2.80;;
62927;SDS011;51070;52.236;-0.892;2023-05-20T07:46:08;7.10;;;2.90;;
62927;SDS011;51070;52.236;-0.892;2023-05-20T07:48:33;7.70;;;3.40;;
62927;SDS011;51070;52.236;-0.892;2023-05-20T07:50:59;6.60;;;3.20;;
62927;SDS011;51070;52.236;-0.892;2023-05-20T07:53:24;5.50;;;2.90;;
62927;SDS011;51070;52.236;-0.892;2023-05-20T07:55:50;5.70;;;3.00;;
62927;SDS011;51070;52.236;-0.892;2023-05-20T07:58:16;7.90;;;3.60;;
62927;SDS011;51070;52.236;-0.892;2023-05-20T08:00:42;5.60;;;2.80;;
62927;SDS011;51070;52.236;-0.892;2023-05-20T08:03:08;8.40;;;3.00;;
62927;SDS011;51070;52.236;-0.892;2023-05-20T08:05:37;4.20;;;2.80;;
62927;SDS011;51070;52.236;-0.892;2023-05-20T08:08:02;8.50;;;3.10;;
62927;SDS011;51070;52.236;-0.892;2023-05-20T08:12:54;6.10;;;3.10;;
62927;SDS011;51070;52.236;-0.892;2023-05-20T08:15:19;5.30;;;3.20;;
62927;SDS011;51070;52.236;-0.892;2023-05-20T08:17:45;8.10;;;3.20;;
62927;SDS011;51070;52.236;-0.892;2023-05-20T08:20:11;4.10;;;3.00;;
62927;SDS011;51070;52.236;-0.892;2023-05-20T08:22:37;4.30;;;2.70;;
62927;SDS011;51070;52.236;-0.892;2023-05-20T08:25:03;5.50;;;2.90;;
62927;SDS011;51070;52.236;-0.892;2023-05-20T08:27:32;5.80;;;3.00;;
62927;SDS011;51070;52.236;-0.892;2023-05-20T08:29:57;6.00;;;3.10;;
62927;SDS011;51070;52.236;-0.892;2023-05-20T08:32:22;7.00;;;3.00;;
62927;SDS011;51070;52.236;-0.892;2023-05-20T08:34:48;6.60;;;3.20;;
62927;SDS011;51070;52.236;-0.892;2023-05-20T08:37:14;8.90;;;4.20;;
62927;SDS011;51070;52.236;-0.892;2023-05-20T08:39:39;5.90;;;3.00;;
62927;SDS011;51070;52.236;-0.892;2023-05-20T08:42:05;4.90;;;3.00;;
62927;SDS011;51070;52.236;-0.892;2023-05-20T08:44:32;5.30;;;3.30;;
62927;SDS011;51070;52.236;-0.892;2023-05-20T08:46:58;5.80;;;2.80;;
62927;SDS011;51070;52.236;-0.892;2023-05-20T08:49:25;4.90;;;2.70;;
62927;SDS011;51070;52.236;-0.892;2023-05-20T08:51:50;4.80;;;2.70;;
62927;SDS011;51070;52.236;-0.892;2023-05-20T08:54:17;5.10;;;3.10;;
62927;SDS011;51070;52.236;-0.892;2023-05-20T08:56:44;8.70;;;3.00;;
62927;SDS011;51070;52.236;-0.892;2023-05-20T08:59:10;8.10;;;3.50;;
62927;SDS011;51070;52.236;-0.892;2023-05-20T09:01:37;6.80;;;2.90;;
62927;SDS011;51070;52.236;-0.892;2023-05-20T09:04:09;4.10;;;2.40;;
62927;SDS011;51070;52.236;-0.892;2023-05-20T09:06:41;4.60;;;2.30;;
62927;SDS011;51070;52.236;-0.892;2023-05-20T09:09:13;5.50;;;2.90;;
62927;SDS011;51070;52.236;-0.892;2023-05-20T09:11:40;6.90;;;2.90;;
62927;SDS011;51070;52.236;-0.892;2023-05-20T09:14:06;4.90;;;2.60;;
62927;SDS011;51070;52.236;-0.892;2023-05-20T09:16:32;4.70;;;2.80;;
62927;SDS011;51070;52.236;-0.892;2023-05-20T09:18:58;4.90;;;2.20;;
62927;SDS011;51070;52.236;-0.892;2023-05-20T09:21:25;4.40;;;2.90;;
62927;SDS011;51070;52.236;-0.892;2023-05-20T09:23:51;5.90;;;2.70;;
62927;SDS011;51070;52.236;-0.892;2023-05-20T09:28:43;5.70;;;2.90;;
62927;SDS011;51070;52.236;-0.892;2023-05-20T09:31:08;3.70;;;2.40;;
62927;SDS011;51070;52.236;-0.892;2023-05-20T09:33:35;5.60;;;2.50;;
62927;SDS011;51070;52.236;-0.892;2023-05-20T09:36:04;4.20;;;2.40;;
62927;SDS011;51070;52.236;-0.892;2023-05-20T09:38:33;6.10;;;2.40;;
62927;SDS011;51070;52.236;-0.892;2023-05-20T09:41:04;4.40;;;2.30;;
62927;SDS011;51070;52.236;-0.892;2023-05-20T09:43:32;5.00;;;2.50;;
62927;SDS011;51070;52.236;-0.892;2023-05-20T09:45:58;5.10;;;2.40;;
62927;SDS011;51070;52.236;-0.892;2023-05-20T09:48:25;6.30;;;2.50;;
62927;SDS011;51070;52.236;-0.892;2023-05-20T09:50:52;4.70;;;2.30;;
62927;SDS011;51070;52.236;-0.892;2023-05-20T09:53:21;5.30;;;2.50;;
62927;SDS011;51070;52.236;-0.892;2023-05-20T09:55:50;4.60;;;2.20;;
62927;SDS011;51070;52.236;-0.892;2023-05-20T09:58:16;7.30;;;2.70;;
62927;SDS011;51070;52.236;-0.892;2023-05-20T10:00:44;3.80;;;2.40;;
62927;SDS011;51070;52.236;-0.892;2023-05-20T10:03:10;5.60;;;2.40;;
62927;SDS011;51070;52.236;-0.892;2023-05-20T10:05:40;4.90;;;2.50;;
62927;SDS011;51070;52.236;-0.892;2023-05-20T10:08:38;5.20;;;2.50;;
62927;SDS011;51070;52.236;-0.892;2023-05-20T10:11:20;6.20;;;2.90;;
62927;SDS011;51070;52.236;-0.892;2023-05-20T10:21:57;7.00;;;2.60;;
62927;SDS011;51070;52.236;-0.892;2023-05-20T10:26:57;6.50;;;2.90;;
62927;SDS011;51070;52.236;-0.892;2023-05-20T10:29:25;5.00;;;2.30;;
62927;SDS011;51070;52.236;-0.892;2023-05-20T10:31:51;6.50;;;2.30;;
62927;SDS011;51070;52.236;-0.892;2023-05-20T10:34:18;3.40;;;2.10;;
62927;SDS011;51070;52.236;-0.892;2023-05-20T10:37:05;6.10;;;2.20;;
62927;SDS011;51070;52.236;-0.892;2023-05-20T10:39:30;5.30;;;2.60;;
62927;SDS011;51070;52.236;-0.892;2023-05-20T10:42:08;4.80;;;2.50;;
62927;SDS011;51070;52.236;-0.892;2023-05-20T10:47:09;5.80;;;3.00;;
62927;SDS011;51070;52.236;-0.892;2023-05-20T10:49:38;6.80;;;3.10;;
62927;SDS011;51070;52.236;-0.892;2023-05-20T10:52:07;4.10;;;2.60;;
62927;SDS011;51070;52.236;-0.892;2023-05-20T10:54:44;6.50;;;2.90;;
62927;SDS011;51070;52.236;-0.892;2023-05-20T10:57:21;5.00;;;2.70;;
62927;SDS011;51070;52.236;-0.892;2023-05-20T10:59:47;3.90;;;2.00;;
62927;SDS011;51070;52.236;-0.892;2023-05-20T11:02:14;6.90;;;2.50;;
62927;SDS011;51070;52.236;-0.892;2023-05-20T11:04:44;5.60;;;2.20;;
62927;SDS011;51070;52.236;-0.892;2023-05-20T11:07:11;4.10;;;2.10;;
62927;SDS011;51070;52.236;-0.892;2023-05-20T11:09:37;5.40;;;2.70;;
62927;SDS011;51070;52.236;-0.892;2023-05-20T11:12:03;5.80;;;3.00;;
62927;SDS011;51070;52.236;-0.892;2023-05-20T11:14:29;4.50;;;2.60;;
62927;SDS011;51070;52.236;-0.892;2023-05-20T11:16:58;8.30;;;2.60;;
62927;SDS011;51070;52.236;-0.892;2023-05-20T11:19:27;5.30;;;2.80;;
62927;SDS011;51070;52.236;-0.892;2023-05-20T11:21:53;4.20;;;3.00;;
62927;SDS011;51070;52.236;-0.892;2023-05-20T11:24:25;6.90;;;2.80;;
62927;SDS011;51070;52.236;-0.892;2023-05-20T11:26:53;6.20;;;3.00;;
62927;SDS011;51070;52.236;-0.892;2023-05-20T11:29:19;5.80;;;3.00;;
62927;SDS011;51070;52.236;-0.892;2023-05-20T11:31:49;5.10;;;3.00;;
62927;SDS011;51070;52.236;-0.892;2023-05-20T11:34:21;4.60;;;2.40;;
62927;SDS011;51070;52.236;-0.892;2023-05-20T11:36:47;5.70;;;3.00;;
62927;SDS011;51070;52.236;-0.892;2023-05-20T11:41:43;5.40;;;2.90;;
62927;SDS011;51070;52.236;-0.892;2023-05-20T11:44:09;6.70;;;2.20;;
62927;SDS011;51070;52.236;-0.892;2023-05-20T11:46:42;5.40;;;2.20;;
62927;SDS011;51070;52.236;-0.892;2023-05-20T11:49:08;4.80;;;3.10;;
62927;SDS011;51070;52.236;-0.892;2023-05-20T11:51:34;6.40;;;2.40;;
62927;SDS011;51070;52.236;-0.892;2023-05-20T11:54:02;4.10;;;2.40;;
62927;SDS011;51070;52.236;-0.892;2023-05-20T11:56:29;5.30;;;2.70;;
62927;SDS011;51070;52.236;-0.892;2023-05-20T11:58:56;4.80;;;2.60;;
62927;SDS011;51070;52.236;-0.892;2023-05-20T12:01:23;5.50;;;2.90;;
62927;SDS011;51070;52.236;-0.892;2023-05-20T12:03:48;7.10;;;2.30;;
62927;SDS011;51070;52.236;-0.892;2023-05-20T12:06:15;5.70;;;2.80;;
62927;SDS011;51070;52.236;-0.892;2023-05-20T12:08:41;4.40;;;1.90;;
62927;SDS011;51070;52.236;-0.892;2023-05-20T12:11:07;3.20;;;2.20;;
62927;SDS011;51070;52.236;-0.892;2023-05-20T12:13:32;7.40;;;2.90;;
62927;SDS011;51070;52.236;-0.892;2023-05-20T12:15:58;3.90;;;2.30;;
62927;SDS011;51070;52.236;-0.892;2023-05-20T12:18:23;5.40;;;2.40;;
62927;SDS011;51070;52.236;-0.892;2023-05-20T12:20:49;5.60;;;2.50;;
62927;SDS011;51070;52.236;-0.892;2023-05-20T12:23:14;5.50;;;2.50;;
62927;SDS011;51070;52.236;-0.892;2023-05-20T12:25:40;4.80;;;2.20;;
62927;SDS011;51070;52.236;-0.892;2023-05-20T12:28:05;7.20;;;2.80;;
62927;SDS011;51070;52.236;-0.892;2023-05-20T12:30:31;5.90;;;2.90;;
62927;SDS011;51070;52.236;-0.892;2023-05-20T12:32:56;7.60;;;3.30;;
62927;SDS011;51070;52.236;-0.892;2023-05-20T12:35:34;3.90;;;2.60;;
62927;SDS011;51070;52.236;-0.892;2023-05-20T12:38:01;4.40;;;2.50;;
62927;SDS011;51070;52.236;-0.892;2023-05-20T12:40:27;9.30;;;3.30;;
62927;SDS011;51070;52.236;-0.892;2023-05-20T12:42:52;9.40;;;2.80;;
62927;SDS011;51070;52.236;-0.892;2023-05-20T12:45:18;4.20;;;2.30;;
62927;SDS011;51070;52.236;-0.892;2023-05-20T12:47:43;5.80;;;2.30;;
62927;SDS011;51070;52.236;-0.892;2023-05-20T12:50:09;4.60;;;2.50;;
62927;SDS011;51070;52.236;-0.892;2023-05-20T12:52:35;4.70;;;2.80;;
62927;SDS011;51070;52.236;-0.892;2023-05-20T12:55:00;3.20;;;2.20;;
62927;SDS011;51070;52.236;-0.892;2023-05-20T12:57:26;5.10;;;2.70;;
62927;SDS011;51070;52.236;-0.892;2023-05-20T12:59:52;3.00;;;2.20;;
62927;SDS011;51070;52.236;-0.892;2023-05-20T13:02:17;4.50;;;2.60;;
62927;SDS011;51070;52.236;-0.892;2023-05-20T13:04:43;5.20;;;2.60;;
62927;SDS011;51070;52.236;-0.892;2023-05-20T13:07:08;4.80;;;2.60;;
62927;SDS011;51070;52.236;-0.892;2023-05-20T13:09:33;4.20;;;2.80;;
62927;SDS011;51070;52.236;-0.892;2023-05-20T13:12:01;7.30;;;3.40;;
62927;SDS011;51070;52.236;-0.892;2023-05-20T13:14:27;4.70;;;2.60;;
62927;SDS011;51070;52.236;-0.892;2023-05-20T13:16:52;5.60;;;2.30;;
62927;SDS011;51070;52.236;-0.892;2023-05-20T13:19:22;4.20;;;2.80;;
62927;SDS011;51070;52.236;-0.892;2023-05-20T13:21:48;6.20;;;2.90;;
62927;SDS011;51070;52.236;-0.892;2023-05-20T13:24:14;4.10;;;2.60;;
62927;SDS011;51070;52.236;-0.892;2023-05-20T13:26:42;3.90;;;2.60;;
62927;SDS011;51070;52.236;-0.892;2023-05-20T13:29:08;5.80;;;2.60;;
62927;SDS011;51070;52.236;-0.892;2023-05-20T13:31:33;3.70;;;2.40;;
62927;SDS011;51070;52.236;-0.892;2023-05-20T13:33:59;4.40;;;2.60;;
62927;SDS011;51070;52.236;-0.892;2023-05-20T13:36:25;5.20;;;3.00;;
62927;SDS011;51070;52.236;-0.892;2023-05-20T13:38:50;5.60;;;2.70;;
62927;SDS011;51070;52.236;-0.892;2023-05-20T13:41:16;6.30;;;2.80;;
62927;SDS011;51070;52.236;-0.892;2023-05-20T13:43:42;5.70;;;3.60;;
62927;SDS011;51070;52.236;-0.892;2023-05-20T13:46:08;4.70;;;2.80;;
62927;SDS011;51070;52.236;-0.892;2023-05-20T13:48:33;4.60;;;2.70;;
62927;SDS011;51070;52.236;-0.892;2023-05-20T13:50:59;5.70;;;3.00;;
62927;SDS011;51070;52.236;-0.892;2023-05-20T13:53:26;6.10;;;3.20;;
62927;SDS011;51070;52.236;-0.892;2023-05-20T13:55:52;3.20;;;2.30;;
62927;SDS011;51070;52.236;-0.892;2023-05-20T13:58:17;6.50;;;2.60;;
62927;SDS011;51070;52.236;-0.892;2023-05-20T14:00:43;5.40;;;2.60;;
62927;SDS011;51070;52.236;-0.892;2023-05-20T14:03:09;6.50;;;3.10;;
62927;SDS011;51070;52.236;-0.892;2023-05-20T14:05:35;5.00;;;2.80;;
62927;SDS011;51070;52.236;-0.892;2023-05-20T14:08:01;4.50;;;2.60;;
62927;SDS011;51070;52.236;-0.892;2023-05-20T14:10:27;3.40;;;2.50;;
62927;SDS011;51070;52.236;-0.892;2023-05-20T14:12:52;4.50;;;2.20;;
62927;SDS011;51070;52.236;-0.892;2023-05-20T14:15:19;3.10;;;2.20;;
62927;SDS011;51070;52.236;-0.892;2023-05-20T14:17:45;6.80;;;2.40;;
62927;SDS011;51070;52.236;-0.892;2023-05-20T14:20:11;5.00;;;2.30;;
62927;SDS011;51070;52.236;-0.892;2023-05-20T14:22:37;3.70;;;2.30;;
62927;SDS011;51070;52.236;-0.892;2023-05-20T14:25:03;6.30;;;2.40;;
62927;SDS011;51070;52.236;-0.892;2023-05-20T14:27:29;5.30;;;2.10;;
62927;SDS011;51070;52.236;-0.892;2023-05-20T14:29:55;4.80;;;3.10;;
62927;SDS011;51070;52.236;-0.892;2023-05-20T14:32:20;4.40;;;2.40;;
62927;SDS011;51070;52.236;-0.892;2023-05-20T14:34:45;3.00;;;2.00;;
62927;SDS011;51070;52.236;-0.892;2023-05-20T14:37:11;4.30;;;2.20;;
62927;SDS011;51070;52.236;-0.892;2023-05-20T14:39:37;4.10;;;2.50;;
62927;SDS011;51070;52.236;-0.892;2023-05-20T14:42:03;4.10;;;2.30;;
62927;SDS011;51070;52.236;-0.892;2023-05-20T14:44:29;4.10;;;2.40;;
62927;SDS011;51070;52.236;-0.892;2023-05-20T14:46:55;4.40;;;2.00;;
62927;SDS011;51070;52.236;-0.892;2023-05-20T14:49:21;6.60;;;2.40;;
62927;SDS011;51070;52.236;-0.892;2023-05-20T14:51:46;4.50;;;2.40;;